Rockwood, Texas
Current Conditions -  °F | °C
As of 7:35 AM on Friday 19 Dec 2014 (Local Time) from KBBD Reporting Station
Overcast Overcast  
Wind Chill: 40°   Ceiling: 6000
Heat Index: 45°   Visibility: 7mi
Dew Point: 43°   Wind: 8mph
Humidity: 93%   Direction: 350°N
Pressure: 30.14"   Gusts: NA
Location:  31.5°N, 99.37°W
Report Text: KBBD 191335Z AUTO 35007KT 7SM SCT006 OVC060 07/06 A3014 RMK
Loading
Personal Weather Stations






























Interactive Weather Map New forecast layout! Learn more

10-Day Weather Forecast

Advertisements
Track Severe Weather on mobile